Time;durP1;ratioP1;P1;durP2;ratioP2;P2;SDS_P1;SDS_P2;PMS_P1;PMS_P2;Temp;Humidity;BMP_temperature;BMP_pressure;BME280_temperature;BME280_humidity;BME280_pressure;Samples;Min_cycle;Max_cycle;Signal;HPM_P1;HPM_P2
2022/07/19 00:02:13;;;;;;;2.07;1.10;;;;;;;18.34;53.22;100225.20;1674676;83;21105;-68
2022/07/19 00:04:39;;;;;;;3.58;1.20;;;;;;;18.31;53.21;100218.28;1676786;84;21506;-68
2022/07/19 00:07:06;;;;;;;1.17;0.60;;;;;;;18.29;53.27;100222.38;1669623;83;21013;-67
2022/07/19 00:09:33;;;;;;;1.95;0.93;;;;;;;18.28;53.28;100218.48;1689109;83;21448;-68
2022/07/19 00:12:01;;;;;;;1.67;1.07;;;;;;;18.26;53.18;100217.23;1674609;82;21933;-68
2022/07/19 00:14:29;;;;;;;1.85;0.90;;;;;;;18.41;52.97;100217.20;1689124;82;21601;-68
2022/07/19 00:16:56;;;;;;;0.93;0.93;;;;;;;18.28;53.03;100216.66;1708270;82;21521;-68
2022/07/19 00:19:23;;;;;;;2.75;1.02;;;;;;;18.27;53.11;100219.41;1669284;83;21487;-68
2022/07/19 00:21:49;;;;;;;0.80;0.80;;;;;;;18.25;53.01;100215.55;1672731;83;21548;-68
2022/07/19 00:24:16;;;;;;;1.20;0.95;;;;;;;18.26;53.20;100215.91;1675711;83;21591;-70
2022/07/19 00:26:43;;;;;;;1.77;0.90;;;;;;;18.26;52.94;100213.73;1668678;83;21490;-68
2022/07/19 00:29:09;;;;;;;1.82;1.05;;;;;;;18.21;52.68;100217.16;1671029;83;21006;-68
2022/07/19 00:31:36;;;;;;;6.55;1.70;;;;;;;18.21;52.74;100216.68;1696292;81;21648;-68
2022/07/19 00:34:03;;;;;;;1.47;1.10;;;;;;;18.18;52.83;100222.22;1673310;83;21478;-68
2022/07/19 00:36:30;;;;;;;4.08;1.00;;;;;;;18.10;53.10;100219.19;1688430;82;21911;-69
2022/07/19 00:38:57;;;;;;;4.42;1.02;;;;;;;18.06;53.53;100223.00;1672847;84;21669;-69
2022/07/19 00:41:23;;;;;;;1.70;1.10;;;;;;;18.01;53.71;100225.13;1680464;83;21467;-69
2022/07/19 00:43:51;;;;;;;2.67;1.70;;;;;;;17.92;53.73;100221.25;1668413;83;21504;-69
2022/07/19 00:46:20;;;;;;;2.13;1.50;;;;;;;17.81;54.10;100224.55;1682312;83;21560;-71
2022/07/19 00:48:50;;;;;;;2.65;1.10;;;;;;;17.76;54.21;100219.99;1678723;83;22340;-70
2022/07/19 00:51:18;;;;;;;1.62;1.27;;;;;;;17.73;54.29;100218.88;1665490;84;21129;-69
2022/07/19 00:53:45;;;;;;;2.40;1.22;;;;;;;17.74;54.44;100221.05;1672667;83;20976;-69
2022/07/19 00:56:12;;;;;;;1.57;1.47;;;;;;;17.73;54.23;100224.20;1692781;83;21531;-69
2022/07/19 00:58:39;;;;;;;3.45;1.67;;;;;;;17.58;54.54;100223.36;1671423;83;21642;-70
2022/07/19 01:01:07;;;;;;;2.60;2.00;;;;;;;17.57;54.60;100224.29;1692349;83;21788;-69
2022/07/19 01:03:38;;;;;;;1.40;1.27;;;;;;;17.42;54.83;100223.47;1687850;83;21445;-69
2022/07/19 01:06:07;;;;;;;2.25;1.07;;;;;;;17.45;54.97;100227.25;1678774;83;21531;-69
2022/07/19 01:08:34;;;;;;;2.00;1.10;;;;;;;17.38;55.08;100218.42;1691361;83;21489;-69
2022/07/19 01:11:00;;;;;;;1.10;1.00;;;;;;;17.35;55.13;100215.49;1690309;82;21452;-69
2022/07/19 01:13:27;;;;;;;1.60;1.00;;;;;;;17.32;55.09;100215.67;1714289;82;21792;-69
2022/07/19 01:15:53;;;;;;;3.70;0.93;;;;;;;17.32;55.10;100208.55;1697345;82;21549;-68
2022/07/19 01:18:21;;;;;;;1.20;1.10;;;;;;;17.30;55.11;100204.28;1679004;82;21545;-69
2022/07/19 01:20:47;;;;;;;1.37;1.02;;;;;;;17.30;55.05;100202.95;1691661;82;21468;-68
2022/07/19 01:23:14;;;;;;;1.52;1.00;;;;;;;17.26;55.13;100203.62;1740304;80;21607;-69
2022/07/19 01:25:42;;;;;;;2.87;1.17;;;;;;;17.26;55.04;100202.77;1734143;80;21562;-69
2022/07/19 01:28:08;;;;;;;1.20;0.88;;;;;;;17.17;55.13;100202.85;1734402;80;21686;-69
2022/07/19 01:30:35;;;;;;;2.45;1.22;;;;;;;17.17;55.02;100197.53;1729897;80;21082;-69
2022/07/19 01:33:02;;;;;;;1.62;0.82;;;;;;;17.19;54.93;100203.61;1726126;80;21471;-70
2022/07/19 01:35:29;;;;;;;1.22;1.02;;;;;;;17.21;54.81;100202.20;1728932;80;21504;-69
2022/07/19 01:37:56;;;;;;;2.35;0.95;;;;;;;17.14;54.89;100197.75;1730124;80;21782;-69
2022/07/19 01:40:23;;;;;;;2.10;1.10;;;;;;;17.07;55.08;100201.23;1705991;82;21606;-69
2022/07/19 01:42:49;;;;;;;1.67;1.10;;;;;;;17.00;55.43;100197.72;1689123;83;21552;-68
2022/07/19 01:45:18;;;;;;;1.13;0.90;;;;;;;16.85;55.92;100206.14;1696444;83;21522;-68
2022/07/19 01:47:46;;;;;;;2.50;1.50;;;;;;;16.74;56.29;100213.37;1704975;82;22116;-68
2022/07/19 01:50:15;;;;;;;1.27;1.02;;;;;;;16.67;56.49;100208.05;1680309;84;21765;-68
2022/07/19 01:52:42;;;;;;;5.55;1.12;;;;;;;16.65;56.65;100209.48;1686961;83;21090;-68
2022/07/19 01:55:09;;;;;;;6.33;1.00;;;;;;;16.64;56.85;100211.75;1694280;82;21056;-68
2022/07/19 01:57:35;;;;;;;2.72;1.00;;;;;;;16.81;56.48;100200.61;1692655;83;21476;-68
2022/07/19 02:00:05;;;;;;;2.05;1.02;;;;;;;16.77;56.49;100207.89;1688135;83;21450;-69
2022/07/19 02:02:35;;;;;;;1.20;1.10;;;;;;;16.81;56.57;100211.22;1690533;83;21575;-69
2022/07/19 02:05:03;;;;;;;2.75;1.30;;;;;;;16.74;56.61;100214.70;1698470;83;21598;-68
2022/07/19 02:07:32;;;;;;;2.85;1.65;;;;;;;16.73;56.66;100211.20;1692953;83;21451;-68
2022/07/19 02:09:59;;;;;;;4.03;1.95;;;;;;;16.71;56.67;100214.42;1682814;83;21523;-68
2022/07/19 02:12:26;;;;;;;3.60;1.07;;;;;;;16.71;56.72;100214.42;1696832;83;21585;-68
2022/07/19 02:14:52;;;;;;;1.70;1.35;;;;;;;16.74;56.71;100210.27;1691812;83;21824;-69
2022/07/19 02:17:21;;;;;;;1.20;1.10;;;;;;;16.74;56.65;100210.27;1693623;83;21519;-70
2022/07/19 02:19:47;;;;;;;1.57;1.37;;;;;;;16.80;56.50;100211.70;1690416;83;21484;-69
2022/07/19 02:22:14;;;;;;;1.25;1.00;;;;;;;16.63;56.94;100208.72;1692239;83;21628;-68
2022/07/19 02:24:42;;;;;;;1.42;1.20;;;;;;;16.74;56.76;100209.39;1691845;83;21539;-68
2022/07/19 02:27:10;;;;;;;;;;;;;;;16.64;56.89;100213.55;1692704;83;21561;-69
2022/07/19 02:29:37;;;;;;;1.85;1.20;;;;;;;16.72;56.92;100220.09;1692920;82;20512;-68
2022/07/19 02:32:05;;;;;;;3.07;1.60;;;;;;;16.70;56.78;100216.69;1686617;82;20966;-68
2022/07/19 02:34:32;;;;;;;9.43;1.45;;;;;;;16.69;57.02;100220.30;1699734;83;21521;-68
2022/07/19 02:36:58;;;;;;;7.83;1.27;;;;;;;16.70;57.11;100221.15;1690645;82;21561;-69
2022/07/19 02:39:25;;;;;;;3.65;1.50;;;;;;;16.78;57.34;100223.34;1684678;83;21867;-67
2022/07/19 02:41:52;;;;;;;2.52;1.42;;;;;;;16.74;57.38;100224.00;1676979;83;21492;-67
2022/07/19 02:44:18;;;;;;;2.70;1.50;;;;;;;16.78;57.51;100222.86;1678199;83;21611;-67
2022/07/19 02:46:45;;;;;;;1.42;1.30;;;;;;;16.81;57.40;100214.73;1681739;84;21023;-67
2022/07/19 02:49:11;;;;;;;1.42;1.20;;;;;;;16.90;57.44;100214.70;1675599;83;21603;-67
2022/07/19 02:51:38;;;;;;;1.65;1.07;;;;;;;16.97;57.32;100215.16;1682490;84;21523;-69
2022/07/19 02:54:05;;;;;;;6.97;1.30;;;;;;;17.07;57.12;100215.00;1677762;83;21576;-68
2022/07/19 02:56:35;;;;;;;4.40;1.27;;;;;;;17.21;56.84;100205.70;1678178;83;21650;-67
2022/07/19 02:59:03;;;;;;;1.47;1.20;;;;;;;17.15;56.82;100202.58;1671272;83;21569;-67
2022/07/19 03:01:30;;;;;;;1.67;1.30;;;;;;;17.23;56.75;100198.97;1673522;83;21063;-67
2022/07/19 03:03:58;;;;;;;3.57;1.27;;;;;;;17.34;56.85;100193.84;1659766;84;21826;-67
2022/07/19 03:06:24;;;;;;;3.27;1.27;;;;;;;17.31;56.99;100198.03;1692353;82;21469;-69
2022/07/19 03:08:51;;;;;;;1.98;1.42;;;;;;;17.35;56.95;100201.33;1684420;83;21506;-66
2022/07/19 03:11:18;;;;;;;2.52;1.72;;;;;;;17.30;57.24;100206.94;1688067;83;21525;-68
2022/07/19 03:13:47;;;;;;;1.57;1.35;;;;;;;17.35;57.15;100202.66;1689037;82;21007;-70
2022/07/19 03:16:13;;;;;;;3.20;1.20;;;;;;;17.33;57.09;100201.45;1694281;83;21792;-68
2022/07/19 03:18:41;;;;;;;1.82;1.62;;;;;;;17.29;57.50;100208.76;1694945;82;21499;-68
2022/07/19 03:21:08;;;;;;;3.12;1.40;;;;;;;17.34;57.34;100210.27;1691027;82;21463;-68
2022/07/19 03:23:37;;;;;;;1.42;1.32;;;;;;;17.32;57.49;100212.53;1691326;82;21054;-68
2022/07/19 03:26:04;;;;;;;4.85;1.62;;;;;;;17.20;57.82;100209.31;1694004;83;21556;-68
2022/07/19 03:28:31;;;;;;;2.22;1.37;;;;;;;17.20;58.02;100208.47;1696645;82;21927;-68
2022/07/19 03:30:58;;;;;;;3.10;1.47;;;;;;;17.34;57.88;100204.95;1696067;83;21570;-68
2022/07/19 03:33:24;;;;;;;1.40;1.30;;;;;;;17.39;57.48;100196.23;1684420;83;21459;-69
2022/07/19 03:35:52;;;;;;;4.30;1.57;;;;;;;17.38;57.68;100202.48;1689073;82;21928;-68
2022/07/19 03:38:18;;;;;;;5.78;1.72;;;;;;;17.49;57.61;100202.17;1680792;83;21661;-68
2022/07/19 03:40:47;;;;;;;3.33;1.50;;;;;;;17.53;57.46;100200.19;1697972;82;22153;-67
2022/07/19 03:43:15;;;;;;;1.72;1.62;;;;;;;17.53;57.45;100190.88;1707037;82;21572;-68
2022/07/19 03:45:43;;;;;;;2.72;1.40;;;;;;;17.58;57.68;100193.27;1704082;82;21116;-69
2022/07/19 03:48:11;;;;;;;2.20;1.50;;;;;;;17.67;57.72;100196.67;1703878;82;21451;-69
2022/07/19 03:50:38;;;;;;;2.95;1.50;;;;;;;17.70;57.92;100200.45;1709851;82;21638;-70
2022/07/19 03:53:05;;;;;;;4.53;1.50;;;;;;;17.80;57.79;100190.06;1707303;82;21781;-69
2022/07/19 03:55:34;;;;;;;2.50;1.45;;;;;;;17.83;57.65;100195.20;1702631;82;21748;-69
2022/07/19 03:58:00;;;;;;;3.95;1.35;;;;;;;17.84;57.80;100197.80;1704483;82;21613;-69
2022/07/19 04:00:27;;;;;;;3.47;1.47;;;;;;;17.95;57.76;100198.45;1708945;82;21607;-69
2022/07/19 04:02:54;;;;;;;3.50;1.50;;;;;;;18.12;57.57;100205.34;1709566;82;20954;-70
2022/07/19 04:05:20;;;;;;;5.00;1.60;;;;;;;18.09;57.15;100201.05;1704346;82;22259;-68
2022/07/19 04:07:48;;;;;;;2.08;1.70;;;;;;;18.08;57.04;100196.70;1706004;82;21531;-68
2022/07/19 04:10:14;;;;;;;9.40;1.90;;;;;;;18.05;57.37;100202.20;1701909;83;21611;-68
2022/07/19 04:12:41;;;;;;;5.70;1.77;;;;;;;18.12;57.61;100201.34;1709115;82;21625;-69
2022/07/19 04:15:09;;;;;;;4.17;1.70;;;;;;;18.13;57.74;100208.84;1706361;82;21053;-68
2022/07/19 04:17:36;;;;;;;5.22;1.60;;;;;;;18.17;57.72;100207.68;1707492;82;21777;-68
2022/07/19 04:20:05;;;;;;;4.95;2.15;;;;;;;18.24;57.85;100205.00;1705566;83;21559;-68
2022/07/19 04:22:32;;;;;;;5.20;1.95;;;;;;;18.28;57.77;100204.68;1701277;82;21509;-68
2022/07/19 04:24:58;;;;;;;3.80;1.70;;;;;;;18.31;57.63;100196.98;1705971;82;21474;-69
2022/07/19 04:27:25;;;;;;;5.97;1.95;;;;;;;18.37;57.75;100201.90;1701156;82;21508;-69
2022/07/19 04:29:52;;;;;;;7.50;2.17;;;;;;;18.35;57.98;100202.97;1708011;82;21856;-68
2022/07/19 04:32:18;;;;;;;3.95;1.80;;;;;;;18.44;57.95;100204.53;1699484;82;21470;-69
2022/07/19 04:34:45;;;;;;;3.35;1.77;;;;;;;18.47;57.97;100196.81;1710378;83;21004;-69
2022/07/19 04:37:13;;;;;;;1.82;1.27;;;;;;;18.50;58.27;100197.95;1703528;82;21503;-69
2022/07/19 04:39:39;;;;;;;3.80;1.72;;;;;;;18.62;58.18;100195.77;1700382;82;21098;-69
2022/07/19 04:42:07;;;;;;;2.50;1.63;;;;;;;18.69;58.25;100192.23;1688765;83;21895;-69
2022/07/19 04:44:34;;;;;;;2.05;1.40;;;;;;;18.75;58.26;100196.28;1686695;83;20994;-69
2022/07/19 04:47:01;;;;;;;3.05;1.65;;;;;;;18.79;58.24;100192.45;1686727;83;21508;-69
2022/07/19 04:49:27;;;;;;;4.20;1.87;;;;;;;18.86;58.10;100198.61;1681088;83;20960;-70
2022/07/19 04:51:54;;;;;;;2.58;1.60;;;;;;;18.91;58.33;100196.98;1687253;83;21485;-68
2022/07/19 04:54:21;;;;;;;2.12;1.85;;;;;;;19.02;58.21;100195.77;1688292;83;21440;-69
2022/07/19 04:56:49;;;;;;;1.85;1.30;;;;;;;19.09;58.04;100200.66;1682394;83;21535;-69
2022/07/19 04:59:16;;;;;;;7.20;2.00;;;;;;;19.08;57.99;100192.28;1683011;83;21584;-68
2022/07/19 05:01:42;;;;;;;3.08;1.27;;;;;;;19.10;58.07;100200.56;1680713;83;21554;-69
2022/07/19 05:04:10;;;;;;;3.58;1.50;;;;;;;19.10;58.28;100202.34;1680580;83;21527;-69
2022/07/19 05:06:37;;;;;;;5.33;1.77;;;;;;;19.14;58.37;100214.04;1682300;83;22144;-68
2022/07/19 05:09:03;;;;;;;3.58;1.70;;;;;;;19.24;58.43;100207.58;1675565;84;21510;-68
2022/07/19 05:11:30;;;;;;;4.70;1.80;;;;;;;19.22;58.61;100208.17;1684111;83;21613;-69
2022/07/19 05:13:56;;;;;;;5.87;2.47;;;;;;;19.29;58.48;100218.78;1678356;83;21023;-68
2022/07/19 05:16:23;;;;;;;2.77;1.87;;;;;;;19.37;58.02;100215.09;1688134;83;20991;-69
2022/07/19 05:18:50;;;;;;;2.90;1.57;;;;;;;19.42;57.87;100217.41;1688220;83;21536;-66
2022/07/19 05:21:17;;;;;;;4.35;1.80;;;;;;;19.60;57.60;100210.78;1683036;83;21522;-65
2022/07/19 05:23:44;;;;;;;3.85;1.85;;;;;;;19.70;57.01;100208.78;1682221;83;21605;-66
2022/07/19 05:26:10;;;;;;;4.83;2.07;;;;;;;19.76;56.00;100209.25;1675245;83;21575;-63
2022/07/19 05:28:37;;;;;;;5.25;1.72;;;;;;;19.86;56.07;100209.91;1718548;80;21465;-66
2022/07/19 05:31:04;;;;;;;2.65;1.80;;;;;;;19.96;55.81;100208.27;1733051;80;21882;-66
2022/07/19 05:33:32;;;;;;;4.28;2.10;;;;;;;20.24;54.93;100199.08;1719277;80;21468;-65
2022/07/19 05:35:59;;;;;;;3.03;2.20;;;;;;;20.20;54.84;100201.61;1735399;80;21532;-64
2022/07/19 05:38:29;;;;;;;5.70;2.15;;;;;;;20.36;54.75;100199.97;1734801;80;21549;-66
2022/07/19 05:40:56;;;;;;;5.47;2.15;;;;;;;20.48;54.47;100197.73;1739014;80;21543;-65
2022/07/19 05:43:23;;;;;;;6.37;2.20;;;;;;;20.61;54.52;100201.70;1734756;80;21871;-66
2022/07/19 05:45:51;;;;;;;5.65;2.25;;;;;;;20.80;54.07;100204.66;1688534;83;21498;-65
2022/07/19 05:48:18;;;;;;;3.22;2.30;;;;;;;20.86;53.05;100201.16;1694176;82;21075;-65
2022/07/19 05:50:45;;;;;;;2.50;1.85;;;;;;;21.02;53.05;100199.47;1692576;82;21135;-64
2022/07/19 05:53:12;;;;;;;2.02;1.85;;;;;;;19.98;55.90;100201.84;1730872;81;21522;-65
2022/07/19 05:55:39;;;;;;;3.70;1.87;;;;;;;19.94;55.89;100207.04;1730859;80;21850;-65
2022/07/19 05:58:05;;;;;;;3.70;1.83;;;;;;;19.89;55.49;100203.88;1735820;80;21459;-66
2022/07/19 06:00:32;;;;;;;4.40;1.98;;;;;;;19.91;56.42;100207.74;1737480;80;22243;-66
2022/07/19 06:02:59;;;;;;;2.13;1.50;;;;;;;20.06;57.21;100210.65;1731944;80;21666;-63
2022/07/19 06:05:26;;;;;;;4.12;1.80;;;;;;;20.23;56.49;100214.25;1730046;80;20952;-66
2022/07/19 06:07:54;;;;;;;5.00;1.77;;;;;;;20.30;56.41;100207.11;1732731;80;21815;-65
2022/07/19 06:10:20;;;;;;;2.30;1.70;;;;;;;20.38;56.45;100203.37;1732120;81;21551;-65
2022/07/19 06:12:47;;;;;;;3.20;1.90;;;;;;;20.39;56.83;100206.42;1723049;80;21140;-65
2022/07/19 06:15:14;;;;;;;3.77;1.70;;;;;;;20.45;56.44;100203.78;1732279;80;21599;-64
2022/07/19 06:17:41;;;;;;;3.47;1.52;;;;;;;20.46;56.82;100202.83;1730352;80;21534;-62
2022/07/19 06:20:11;;;;;;;2.27;1.60;;;;;;;20.63;56.09;100203.77;1730193;80;21518;-62
2022/07/19 06:22:37;;;;;;;3.52;2.25;;;;;;;20.63;56.09;100203.77;1733144;80;21481;-62
2022/07/19 06:25:06;;;;;;;2.35;1.80;;;;;;;20.72;56.04;100201.73;1691732;84;21511;-63
2022/07/19 06:27:33;;;;;;;4.72;1.85;;;;;;;20.72;56.04;100201.73;1696428;82;21509;-64
2022/07/19 06:30:00;;;;;;;1.87;1.60;;;;;;;20.70;55.13;100201.45;1682324;83;21517;-64
2022/07/19 06:32:27;;;;;;;;;;;;;;;20.72;55.47;100202.19;1698434;82;21851;-64
2022/07/19 06:34:54;;;;;;;4.42;2.20;;;;;;;20.71;55.65;100204.52;1695373;82;20456;-65
2022/07/19 06:37:20;;;;;;;2.17;1.80;;;;;;;20.73;55.84;100207.42;1729801;80;21409;-63
2022/07/19 06:39:47;;;;;;;3.30;1.70;;;;;;;20.78;55.27;100205.75;1726309;81;21684;-64
2022/07/19 06:42:14;;;;;;;3.58;1.47;;;;;;;20.82;55.78;100209.89;1713822;82;21622;-64
2022/07/19 06:44:41;;;;;;;3.12;1.92;;;;;;;20.82;56.11;100212.56;1690133;83;21938;-64
2022/07/19 06:47:08;;;;;;;1.60;1.40;;;;;;;20.92;56.18;100222.05;1699113;82;21442;-63
2022/07/19 06:49:36;;;;;;;6.70;1.90;;;;;;;20.95;55.96;100213.31;1706612;82;21435;-63
2022/07/19 06:52:03;;;;;;;5.03;2.00;;;;;;;21.09;55.44;100206.89;1704266;82;21053;-63
2022/07/19 06:54:30;;;;;;;5.35;1.60;;;;;;;21.09;55.13;100196.69;1702078;82;21533;-63
2022/07/19 06:56:57;;;;;;;3.65;1.70;;;;;;;21.07;54.90;100198.63;1699663;83;21594;-63
2022/07/19 06:59:24;;;;;;;5.22;1.98;;;;;;;21.15;54.65;100204.22;1702813;82;20965;-63
2022/07/19 07:01:50;;;;;;;5.20;1.90;;;;;;;21.26;54.72;100195.36;1704542;82;21609;-63
2022/07/19 07:04:17;;;;;;;1.70;1.60;;;;;;;21.26;54.72;100195.36;1711822;82;21482;-63
2022/07/19 07:06:44;;;;;;;2.90;1.90;;;;;;;21.28;54.29;100191.59;1701658;82;21521;-63
2022/07/19 07:09:11;;;;;;;3.08;1.80;;;;;;;21.28;54.29;100191.59;1698878;83;21971;-63
2022/07/19 07:11:37;;;;;;;8.78;1.80;;;;;;;21.23;54.35;100195.13;1705925;82;21711;-63
2022/07/19 07:14:04;;;;;;;3.05;1.70;;;;;;;21.23;54.35;100195.13;1696531;82;20973;-63
2022/07/19 07:16:33;;;;;;;1.75;1.60;;;;;;;21.31;54.52;100193.19;1701780;82;21648;-64
2022/07/19 07:18:59;;;;;;;4.12;1.70;;;;;;;21.32;54.64;100193.07;1683219;83;21408;-64
2022/07/19 07:21:29;;;;;;;4.28;1.70;;;;;;;21.40;54.57;100207.17;1682842;82;20951;-63
2022/07/19 07:23:56;;;;;;;4.17;2.05;;;;;;;21.47;54.42;100207.55;1700459;82;21589;-64
2022/07/19 07:26:23;;;;;;;3.17;1.85;;;;;;;21.46;54.35;100202.70;1691010;82;21581;-63
2022/07/19 07:28:50;;;;;;;4.65;2.08;;;;;;;21.52;53.74;100210.22;1690087;82;21529;-64
2022/07/19 07:31:16;;;;;;;4.00;1.72;;;;;;;21.51;54.06;100209.87;1695449;82;21557;-63
2022/07/19 07:33:43;;;;;;;3.25;1.67;;;;;;;21.57;53.86;100207.20;1695877;81;21817;-64
2022/07/19 07:36:09;;;;;;;4.15;1.90;;;;;;;21.57;53.86;100207.20;1696008;82;21566;-63
2022/07/19 07:38:36;;;;;;;4.00;1.70;;;;;;;21.62;52.22;100207.66;1702434;82;21578;-63
2022/07/19 07:41:05;;;;;;;5.58;1.70;;;;;;;21.65;52.74;100207.92;1689698;82;21499;-63
2022/07/19 07:43:32;;;;;;;3.33;1.32;;;;;;;21.66;52.64;100209.60;1677251;83;21022;-63
2022/07/19 07:45:59;;;;;;;4.33;1.70;;;;;;;21.58;52.08;100205.72;1682150;83;21918;-63
2022/07/19 07:48:26;;;;;;;3.83;1.77;;;;;;;21.53;52.69;100217.75;1678273;83;21635;-63
2022/07/19 07:50:53;;;;;;;4.40;2.08;;;;;;;21.53;53.29;100221.77;1686690;83;21606;-64
2022/07/19 07:53:19;;;;;;;2.42;2.12;;;;;;;21.50;52.60;100220.70;1680593;83;21575;-63
2022/07/19 07:55:46;;;;;;;3.90;2.20;;;;;;;21.39;52.49;100212.98;1684611;83;21538;-63
2022/07/19 07:58:13;;;;;;;2.77;1.67;;;;;;;21.36;53.15;100217.26;1677989;83;21890;-64
2022/07/19 08:00:40;;;;;;;5.35;2.02;;;;;;;21.46;53.00;100218.75;1682604;83;21591;-63
2022/07/19 08:03:06;;;;;;;4.37;1.90;;;;;;;21.46;53.00;100218.75;1676307;83;21519;-63
2022/07/19 08:05:33;;;;;;;5.80;1.77;;;;;;;21.39;53.41;100222.84;1691433;82;20968;-64
2022/07/19 08:08:00;;;;;;;3.25;1.92;;;;;;;21.44;53.33;100221.16;1690217;82;21578;-63
2022/07/19 08:10:31;;;;;;;2.77;1.65;;;;;;;21.47;53.21;100220.44;1701367;82;21899;-63
2022/07/19 08:12:58;;;;;;;3.05;1.45;;;;;;;21.42;54.23;100227.09;1688662;82;21601;-63
2022/07/19 08:15:26;;;;;;;1.87;1.30;;;;;;;21.42;54.51;100223.08;1684799;82;21685;-62
2022/07/19 08:17:53;;;;;;;2.52;1.80;;;;;;;21.37;54.28;100230.98;1698747;82;21019;-63
2022/07/19 08:20:21;;;;;;;1.90;1.70;;;;;;;21.33;54.42;100221.50;1689920;83;21576;-62
2022/07/19 08:22:48;;;;;;;4.42;1.87;;;;;;;21.34;54.91;100227.69;1717283;81;22262;-63
2022/07/19 08:25:16;;;;;;;5.45;1.87;;;;;;;21.31;55.32;100226.13;1710511;82;21560;-63
2022/07/19 08:27:44;;;;;;;4.05;1.77;;;;;;;21.41;55.91;100228.92;1739966;80;21490;-64
2022/07/19 08:30:11;;;;;;;2.83;1.98;;;;;;;21.41;55.91;100228.92;1736201;80;21478;-63
2022/07/19 08:32:39;;;;;;;2.47;1.90;;;;;;;21.63;56.40;100226.77;1731841;80;20954;-64
2022/07/19 08:35:07;;;;;;;2.80;2.47;;;;;;;21.60;56.50;100222.14;1740663;80;21952;-64
2022/07/19 08:37:34;;;;;;;2.30;1.57;;;;;;;21.79;55.61;100218.34;1735247;82;21541;-62
2022/07/19 08:40:04;;;;;;;3.47;1.80;;;;;;;21.79;55.61;100218.34;1734841;80;21510;-64
2022/07/19 08:42:31;;;;;;;2.12;1.60;;;;;;;21.99;55.30;100214.06;1744791;80;21543;-63
2022/07/19 08:45:17;;;;;;;4.80;1.57;;;;;;;22.10;55.16;100214.03;1619015;86;21543;-64
2022/07/19 08:47:44;;;;;;;2.60;1.80;;;;;;;22.07;55.01;100211.59;1622653;86;21809;-64
2022/07/19 08:50:11;;;;;;;2.80;2.15;;;;;;;22.21;55.30;100207.80;1617996;85;21478;-63
2022/07/19 08:52:38;;;;;;;1.57;1.47;;;;;;;22.28;55.73;100207.70;1635558;86;21471;-62
2022/07/19 08:55:05;;;;;;;5.00;1.90;;;;;;;22.37;55.70;100207.89;1655587;84;20982;-62
2022/07/19 09:00:20;;;;;;;2.20;1.98;;;;;;;22.26;54.70;100202.08;1657295;84;21831;-63
2022/07/19 09:03:02;;;;;;;1.50;1.40;;;;;;;21.99;55.18;100203.36;1628760;86;21624;-68
2022/07/19 09:05:30;;;;;;;3.70;1.77;;;;;;;21.92;56.00;100204.83;1620805;86;21674;-67
2022/07/19 09:08:07;;;;;;;4.35;1.67;;;;;;;21.92;56.00;100204.83;1657771;84;21564;-66
2022/07/19 09:10:36;;;;;;;2.33;1.55;;;;;;;21.97;55.69;100208.83;1665224;84;21615;-67
2022/07/19 09:13:14;;;;;;;1.60;1.50;;;;;;;22.11;55.52;100213.07;1654127;84;21766;-66
2022/07/19 09:15:52;;;;;;;3.10;1.95;;;;;;;21.95;55.90;100217.97;1664546;83;21584;-66
2022/07/19 09:18:34;;;;;;;3.40;1.80;;;;;;;21.87;56.49;100214.58;1619527;86;21022;-67
2022/07/19 09:21:04;;;;;;;3.27;1.85;;;;;;;21.87;56.49;100214.58;1654178;84;21606;-66
2022/07/19 09:23:31;;;;;;;2.08;1.62;;;;;;;21.85;56.14;100199.14;1651267;84;21123;-64
2022/07/19 09:26:00;;;;;;;1.97;1.60;;;;;;;21.83;56.76;100215.81;1630841;86;21498;-63
2022/07/19 09:28:29;;;;;;;2.05;1.62;;;;;;;21.81;56.23;100211.53;1651094;83;22016;-64
2022/07/19 09:30:57;;;;;;;1.77;1.42;;;;;;;21.81;56.22;100208.86;1656432;85;21453;-65
2022/07/19 09:33:28;;;;;;;2.10;1.27;;;;;;;21.84;55.74;100203.27;1668168;84;21548;-63
2022/07/19 09:35:57;;;;;;;3.00;1.35;;;;;;;21.82;56.31;100204.73;1656362;84;21576;-64
2022/07/19 09:38:33;;;;;;;4.08;1.45;;;;;;;21.82;56.31;100204.73;1659500;84;21572;-63
2022/07/19 09:41:16;;;;;;;2.17;1.40;;;;;;;21.80;56.75;100211.19;1649221;84;21795;-63
2022/07/19 09:43:56;;;;;;;2.55;1.90;;;;;;;21.93;57.04;100178.43;1670921;83;21108;-64
2022/07/19 09:46:39;;;;;;;3.62;1.85;;;;;;;22.09;56.92;100205.63;1686385;83;21154;-65
2022/07/19 09:49:14;;;;;;;3.37;1.87;;;;;;;22.22;57.04;100201.95;1680437;83;21639;-63
2022/07/19 09:51:49;;;;;;;2.45;1.62;;;;;;;22.30;56.52;100202.19;1685548;82;21875;-63
2022/07/19 09:56:38;;;;;;;1.65;1.42;;;;;;;22.08;58.40;100193.73;1788607;78;23183;-63
2022/07/19 09:59:05;;;;;;;3.08;1.55;;;;;;;22.47;56.87;100194.95;1759239;80;20957;-63
2022/07/19 10:01:32;;;;;;;3.60;1.70;;;;;;;22.67;56.09;100175.83;1765336;80;21793;-63
2022/07/19 10:04:04;;;;;;;2.12;1.92;;;;;;;22.89;55.79;100178.88;1769120;79;21518;-63
2022/07/19 10:06:30;;;;;;;2.27;2.00;;;;;;;22.94;54.77;100171.29;1764880;79;21496;-65
2022/07/19 10:08:58;;;;;;;1.92;1.82;;;;;;;23.02;54.48;100169.75;1766201;79;21521;-65
2022/07/19 10:11:24;;;;;;;5.85;2.17;;;;;;;23.11;54.16;100173.88;1755499;80;20987;-65
2022/07/19 10:13:51;;;;;;;6.03;2.10;;;;;;;23.20;53.99;100162.81;1763958;79;22282;-65
2022/07/19 10:16:36;;;;;;;2.30;1.87;;;;;;;23.38;54.88;100163.05;1761605;80;20978;-68
2022/07/19 10:19:07;;;;;;;2.12;1.92;;;;;;;23.38;54.88;100163.05;1767997;79;21495;-65
2022/07/19 10:21:34;;;;;;;2.95;1.65;;;;;;;23.51;53.96;100161.48;1760258;79;21492;-64
2022/07/19 10:24:01;;;;;;;2.08;1.60;;;;;;;23.48;53.11;100157.21;1733990;80;21514;-64
2022/07/19 10:26:39;;;;;;;4.95;2.25;;;;;;;23.48;53.40;100150.50;1761472;80;21900;-64
2022/07/19 10:29:17;;;;;;;3.40;2.00;;;;;;;23.52;52.83;100146.55;1778152;79;21456;-64
2022/07/19 10:31:46;;;;;;;2.83;1.67;;;;;;;23.57;53.61;100152.03;1767312;79;26709;-63
2022/07/19 10:34:22;;;;;;;1.92;1.72;;;;;;;23.58;52.59;100152.36;1753310;79;21062;-64
2022/07/19 10:36:49;;;;;;;3.35;1.80;;;;;;;23.65;52.64;100147.66;1766161;80;21450;-64
2022/07/19 10:39:30;;;;;;;3.35;1.87;;;;;;;23.65;53.01;100145.47;1785159;79;21843;-64
2022/07/19 10:42:22;;;;;;;4.53;1.82;;;;;;;23.82;53.50;100139.45;1765450;79;21012;-64
2022/07/19 10:45:00;;;;;;;2.77;1.62;;;;;;;24.19;51.42;100120.48;1769451;79;21891;-64
2022/07/19 10:47:37;;;;;;;5.37;1.80;;;;;;;24.19;51.42;100120.48;1772515;79;21507;-64
2022/07/19 10:50:14;;;;;;;2.15;1.85;;;;;;;24.23;50.31;100131.29;1760769;79;20961;-64
2022/07/19 10:52:45;;;;;;;1.90;1.80;;;;;;;24.32;49.87;100125.54;1768580;78;21789;-65
2022/07/19 10:55:25;;;;;;;2.27;1.72;;;;;;;24.43;49.55;100119.54;1769666;79;21474;-62
2022/07/19 10:58:10;;;;;;;2.50;1.80;;;;;;;24.33;50.09;100121.37;1743830;80;21519;-63
2022/07/19 11:00:49;;;;;;;4.83;2.20;;;;;;;24.37;50.72;100123.28;1760729;80;21543;-65
2022/07/19 11:03:25;;;;;;;;;;;;;;;24.48;50.68;100118.59;1760051;80;21520;-65
2022/07/19 11:05:55;;;;;;;3.23;1.70;;;;;;;24.66;49.62;100112.53;1759199;80;21908;-65
2022/07/19 11:08:42;;;;;;;3.12;1.80;;;;;;;24.77;49.35;100109.66;1759617;80;20971;-66
2022/07/19 11:11:15;;;;;;;3.72;2.08;;;;;;;24.77;49.13;100070.68;1744213;80;21543;-63
2022/07/19 11:13:51;;;;;;;1.82;1.30;;;;;;;25.03;47.26;100104.48;1754873;80;21540;-64
2022/07/19 11:16:19;;;;;;;2.65;1.92;;;;;;;24.59;48.50;100101.48;1756886;79;21429;-64
2022/07/19 11:18:46;;;;;;;4.85;1.70;;;;;;;24.51;48.96;100101.85;1755924;80;21954;-64
2022/07/19 11:21:14;;;;;;;2.57;1.77;;;;;;;24.35;49.49;100107.30;1750113;80;21420;-63
2022/07/19 11:23:42;;;;;;;2.55;1.80;;;;;;;24.21;49.83;100107.25;1751695;80;21882;-64
2022/07/19 11:26:17;;;;;;;1.92;1.75;;;;;;;24.09;49.85;100105.21;1754514;80;21597;-64
2022/07/19 11:28:45;;;;;;;4.20;1.72;;;;;;;24.00;49.66;100108.74;1753156;80;21586;-64
2022/07/19 11:31:22;;;;;;;2.98;2.02;;;;;;;23.78;51.02;100108.98;1745413;80;21412;-63
2022/07/19 11:33:59;;;;;;;3.17;1.82;;;;;;;23.70;51.65;100113.70;1752496;80;21046;-63
2022/07/19 11:36:27;;;;;;;4.60;1.67;;;;;;;23.65;52.14;100110.08;1745310;80;28810;-65
2022/07/19 11:38:56;;;;;;;3.60;1.55;;;;;;;23.69;51.07;100105.28;1749580;80;21531;-63